Home   Weather   Spain   Madrid   Past weeks
Flag for Spain

Past Weather in Madrid, Madrid, Spain — Yesterday and Last 2 Weeks

Currently: 54 °F. Passing clouds. (Weather station: Madrid / Cuatro Vientos, Spain). See more current weather

Past Weather in Madrid — Graph

°F

Madrid Temperature Yesterday

Maximum temperature yesterday: 72 °F (at 2:30 pm)
Minimum temperature yesterday: 45 °F (at 4:00 am)
Average temperature yesterday: 59 °F

High & Low Weather Summary for the Past Weeks

 TemperatureHumidityPressure
High84 °F (May 10, 4:30 pm)100% (May 5, 6:30 am)30.24 "Hg (May 5, 6:30 am)
Low43 °F (May 7, 5:00 am)16% (May 8, 5:30 pm)29.74 "Hg (May 14, 6:30 pm)
Average62 °F52%29.95 "Hg
* Reported May 5 2:00 am — May 20 2:00 am, Madrid. Weather by CustomWeather, © 2024

Note: Actual official high and low records may vary slightly from our data, if they occured in-between our weather recording intervals... More about our weather records

Madrid Weather History for the Previous 24 Hours

Scroll right to see more
 ConditionsComfort  
Time TempWeatherWind HumidityBarometerVisibility
2:00 am
Mon, May 20
54 °FClear.2 mph67%29.89 "Hg10 mi
1:30 am55 °FPassing clouds.3 mph63%29.89 "HgN/A
1:00 am55 °FPassing clouds.3 mph67%29.89 "HgN/A
12:30 am55 °FPassing clouds.3 mph67%29.89 "HgN/A
12:00 am57 °FClear.5 mph59%29.89 "Hg10 mi
11:30 pm
Sun, May 19
57 °FPassing clouds.6 mph51%29.89 "HgN/A
11:00 pm57 °FPassing clouds.6 mph51%29.89 "HgN/A
10:30 pm55 °FClear.7 mph63%29.86 "Hg10 mi
10:00 pm57 °FPassing clouds.5 mph59%29.86 "HgN/A
9:30 pm57 °FPassing clouds.5 mph59%29.83 "HgN/A
9:00 pm59 °FPassing clouds.7 mph51%29.83 "HgN/A
8:30 pm61 °FPassing clouds.10 mph42%29.83 "HgN/A
8:00 pm63 °FPassing clouds.14 mph39%29.80 "HgN/A
7:00 pm63 °FPassing clouds.15 mph39%29.80 "HgN/A
6:30 pm64 °FPassing clouds.23 mph37%29.80 "HgN/A
6:00 pm68 °FPassing clouds.21 mph33%29.80 "HgN/A
5:30 pm72 °FScattered clouds.16 mph23%29.80 "HgN/A
5:00 pm72 °FScattered clouds.14 mph29%29.77 "HgN/A
4:30 pm72 °FScattered clouds.14 mph31%29.77 "HgN/A
4:00 pm68 °FScattered clouds.14 mph35%29.80 "HgN/A
3:00 pm70 °FScattered clouds.10 mph33%29.80 "HgN/A
2:30 pm72 °FScattered clouds.13 mph29%29.80 "HgN/A
2:00 pm70 °FScattered clouds.13 mph35%29.80 "HgN/A
1:30 pm70 °FScattered clouds.9 mph38%29.83 "HgN/A
1:00 pm66 °FScattered clouds.6 mph43%29.83 "HgN/A
12:30 pm66 °FBroken clouds.7 mph43%29.83 "HgN/A
12:00 pm64 °FScattered clouds.3 mph43%29.86 "HgN/A
11:30 am64 °FScattered clouds.2 mph49%29.86 "HgN/A
11:00 am63 °FScattered clouds.2 mph52%29.86 "HgN/A
10:30 am61 °FPassing clouds.3 mph55%29.86 "HgN/A
10:00 am59 °FPassing clouds.3 mph59%29.86 "HgN/A
9:30 am57 °FScattered clouds.3 mph63%29.86 "HgN/A
9:00 am55 °FScattered clouds.3 mph67%29.86 "HgN/A
8:30 am55 °FScattered clouds.2 mph67%29.86 "HgN/A
8:00 am54 °FPassing clouds.2 mph72%29.86 "HgN/A
7:30 am52 °FPassing clouds.2 mph72%29.86 "HgN/A
7:00 am50 °FPassing clouds.3 mph76%29.83 "HgN/A
6:30 am52 °FPassing clouds.3 mph72%29.83 "HgN/A
6:00 am50 °FClear.3 mph76%29.83 "Hg10 mi
5:30 am50 °FClear.2 mph76%29.83 "Hg10 mi
5:00 am46 °FPassing clouds.No wind82%29.83 "HgN/A
4:30 am46 °FClear.2 mph82%29.83 "Hg10 mi
4:00 am45 °FClear.3 mph81%29.83 "Hg10 mi
3:30 am50 °FClear.1 mph71%29.86 "Hg10 mi
3:00 am48 °FClear.2 mph76%29.86 "Hg10 mi
Weather by CustomWeather, © 2024

See weather overview